createdAt,value
2018-02-19T08:13:39.643Z,2.20
2018-02-19T08:16:09.715Z,2.40
2018-02-19T08:18:39.211Z,2.30
2018-02-19T08:21:09.349Z,2.40
2018-02-19T08:23:38.842Z,2.40
2018-02-19T08:26:08.869Z,2.50
2018-02-19T08:28:38.681Z,2.60
2018-02-19T08:31:09.289Z,2.70
2018-02-19T08:33:39.299Z,2.60
2018-02-19T08:36:09.243Z,2.60
2018-02-19T08:38:45.349Z,2.30
2018-02-19T08:41:23.841Z,2.30
2018-02-19T08:43:54.351Z,2.30
2018-02-19T08:46:23.963Z,2.40
2018-02-19T08:48:54.867Z,2.80
2018-02-19T08:51:25.481Z,3.00
2018-02-19T08:53:55.134Z,3.00
2018-02-19T08:56:24.768Z,3.00
2018-02-19T08:58:56.268Z,2.90
2018-02-19T09:01:25.856Z,3.00
2018-02-19T09:03:56.359Z,2.80
2018-02-19T09:06:32.009Z,2.80
2018-02-19T09:09:23.836Z,3.00
2018-02-19T09:11:55.834Z,2.80
2018-02-19T09:14:26.041Z,2.90
2018-02-19T09:16:55.819Z,3.10
2018-02-19T09:19:25.372Z,3.10
2018-02-19T09:21:56.114Z,3.10
2018-02-19T09:24:26.913Z,3.20
2018-02-19T09:26:57.077Z,3.20
2018-02-19T09:29:30.871Z,3.30
2018-02-19T09:32:01.210Z,3.40
2018-02-19T09:34:30.677Z,3.50
2018-02-19T09:37:14.284Z,3.60
2018-02-19T09:39:44.766Z,3.70
2018-02-19T09:42:14.737Z,3.70
2018-02-19T09:44:44.448Z,3.70
2018-02-19T09:47:14.145Z,3.60
2018-02-19T09:49:44.795Z,3.80
2018-02-19T09:52:14.367Z,3.80
2018-02-19T09:54:43.873Z,4.00
2018-02-19T09:57:13.456Z,4.30
2018-02-19T09:59:42.959Z,4.50
2018-02-19T10:02:13.648Z,4.50
2018-02-19T10:04:43.907Z,4.40
2018-02-19T10:07:14.359Z,4.30
2018-02-19T10:09:45.029Z,4.20
2018-02-19T10:12:15.371Z,4.70
2018-02-19T10:14:46.586Z,4.70
2018-02-19T10:17:16.325Z,4.70
2018-02-19T10:19:45.962Z,5.10
2018-02-19T10:22:15.476Z,5.10
2018-02-19T10:24:44.901Z,5.30
2018-02-19T10:27:15.135Z,5.40
2018-02-19T10:29:44.882Z,5.20
2018-02-19T10:32:14.694Z,4.90
2018-02-19T10:34:45.132Z,5.10
2018-02-19T10:37:15.018Z,5.10
2018-02-19T10:39:45.658Z,5.20
2018-02-19T10:42:15.844Z,5.20
2018-02-19T10:44:45.368Z,5.40
2018-02-19T10:47:17.221Z,5.70
2018-02-19T10:49:47.425Z,5.70
2018-02-19T10:52:17.011Z,5.80
2018-02-19T10:54:46.922Z,5.70
2018-02-19T10:57:16.831Z,5.70
2018-02-19T10:59:47.608Z,5.80
2018-02-19T11:02:28.736Z,5.90
2018-02-19T11:04:59.339Z,6.00
2018-02-19T11:07:32.661Z,6.30
2018-02-19T11:10:02.620Z,6.50
2018-02-19T11:12:33.876Z,6.50
2018-02-19T11:15:06.307Z,6.50
2018-02-19T11:17:36.750Z,6.60
2018-02-19T11:20:06.886Z,6.60
2018-02-19T11:22:36.668Z,6.80
2018-02-19T11:25:05.770Z,6.70
2018-02-19T11:27:35.588Z,6.60
2018-02-19T11:30:05.484Z,6.50
2018-02-19T11:32:35.237Z,6.90
2018-02-19T11:35:05.004Z,7.40
2018-02-19T11:37:35.126Z,7.40
2018-02-19T11:40:10.795Z,7.60
2018-02-19T11:42:41.340Z,6.90
2018-02-19T11:45:20.226Z,6.80
2018-02-19T11:48:01.290Z,6.60
2018-02-19T11:50:31.335Z,6.50
2018-02-19T11:53:01.479Z,6.50
2018-02-19T11:55:31.704Z,6.70
2018-02-19T11:58:01.900Z,6.60
2018-02-19T12:00:31.840Z,7.10
2018-02-19T12:03:01.924Z,7.50
2018-02-19T12:05:31.842Z,8.20
2018-02-19T12:08:02.362Z,9.50
2018-02-19T12:10:32.879Z,10.30
2018-02-19T12:13:03.101Z,10.30
2018-02-19T12:15:33.975Z,10.00
2018-02-19T12:18:11.452Z,9.70
2018-02-19T12:20:50.097Z,8.90
2018-02-19T12:23:21.944Z,8.90
2018-02-19T12:25:54.300Z,8.90
2018-02-19T12:28:26.302Z,9.30
2018-02-19T12:30:56.378Z,8.80
2018-02-19T12:33:26.620Z,8.40
2018-02-19T12:35:56.555Z,9.10
2018-02-19T12:38:26.784Z,9.20
2018-02-19T12:40:58.727Z,9.30
2018-02-19T12:43:34.254Z,9.40
2018-02-19T12:46:08.641Z,9.20
2018-02-19T12:48:45.934Z,8.40
2018-02-19T12:51:20.572Z,8.00
2018-02-19T12:53:52.060Z,8.00
2018-02-19T12:56:26.592Z,7.60
2018-02-19T12:58:58.657Z,7.70
2018-02-19T13:01:31.853Z,8.20
2018-02-19T13:04:02.614Z,8.80
2018-02-19T13:06:33.188Z,8.80
2018-02-19T13:09:02.838Z,9.20
2018-02-19T13:11:33.483Z,8.50
2018-02-19T13:14:05.207Z,8.20
2018-02-19T13:16:36.974Z,8.80
2018-02-19T13:19:07.251Z,8.70
2018-02-19T13:21:37.605Z,9.30
2018-02-19T13:24:14.909Z,9.50
2018-02-19T13:26:49.380Z,9.60
2018-02-19T13:29:22.691Z,9.60
2018-02-19T13:32:05.233Z,9.60
2018-02-19T13:34:36.492Z,9.70
2018-02-19T13:37:08.200Z,9.80
2018-02-19T13:39:39.956Z,9.90
2018-02-19T13:42:10.986Z,11.10
2018-02-19T13:44:43.708Z,11.20
2018-02-19T13:47:13.384Z,11.40
2018-02-19T13:49:43.107Z,10.30
2018-02-19T13:52:13.209Z,10.70
2018-02-19T13:54:45.821Z,10.80
2018-02-19T13:57:16.939Z,10.10
2018-02-19T13:59:59.896Z,9.30
2018-02-19T14:02:33.976Z,8.50
2018-02-19T14:05:04.534Z,7.90
2018-02-19T14:07:35.105Z,7.50
2018-02-19T14:10:16.210Z,7.90
2018-02-19T14:12:48.602Z,8.20
2018-02-19T14:15:18.666Z,8.00
2018-02-19T14:17:48.573Z,7.90
2018-02-19T14:20:18.520Z,7.60
2018-02-19T14:22:48.420Z,7.50
2018-02-19T14:25:21.519Z,7.70
2018-02-19T14:27:53.214Z,8.00
2018-02-19T14:30:24.422Z,8.00
2018-02-19T14:32:55.113Z,8.00
2018-02-19T14:35:25.205Z,8.00
2018-02-19T14:37:55.356Z,7.50
2018-02-19T14:40:25.464Z,7.40
2018-02-19T14:42:55.294Z,7.20
2018-02-19T14:45:26.050Z,6.80
2018-02-19T14:47:56.180Z,6.80
2018-02-19T14:50:26.604Z,6.70
2018-02-19T14:52:57.188Z,6.80
2018-02-19T14:55:27.210Z,6.90
2018-02-19T14:57:57.466Z,7.20
2018-02-19T15:00:28.173Z,7.20
2018-02-19T15:02:58.660Z,7.10
2018-02-19T15:05:29.241Z,7.10
2018-02-19T15:07:59.238Z,7.10
2018-02-19T15:10:36.785Z,7.00
2018-02-19T15:13:20.076Z,6.90
2018-02-19T15:15:57.660Z,6.90
2018-02-19T15:18:36.116Z,6.90
2018-02-19T15:21:06.786Z,6.80
2018-02-19T15:23:36.515Z,6.80
2018-02-19T15:26:09.300Z,6.80
2018-02-19T15:28:43.833Z,6.80
2018-02-19T15:31:14.647Z,6.90
2018-02-19T15:33:52.907Z,6.80
2018-02-19T15:36:23.068Z,6.60
2018-02-19T15:39:02.765Z,6.50
2018-02-19T15:41:34.120Z,6.50
2018-02-19T15:44:08.639Z,6.50
2018-02-19T15:46:39.189Z,6.40
2018-02-19T15:49:09.211Z,6.30
2018-02-19T15:51:39.300Z,6.40
2018-02-19T15:54:09.199Z,6.40
2018-02-19T15:56:40.372Z,6.50
2018-02-19T15:59:12.799Z,6.60
2018-02-19T16:01:42.986Z,6.50
2018-02-19T16:04:13.062Z,6.40
2018-02-19T16:06:49.404Z,6.40
2018-02-19T16:09:20.000Z,6.30
2018-02-19T16:11:50.708Z,6.30
2018-02-19T16:14:21.206Z,6.20
2018-02-19T16:16:55.139Z,6.20
2018-02-19T16:20:31.486Z,6.20
2018-02-19T16:23:03.085Z,6.20
2018-02-19T16:25:36.440Z,6.20
2018-02-19T16:28:11.586Z,6.10
2018-02-19T16:30:48.711Z,6.00
2018-02-19T16:33:20.813Z,6.10
2018-02-19T16:35:52.359Z,6.10
2018-02-19T16:38:26.272Z,6.00
2018-02-19T16:41:05.041Z,6.10
2018-02-19T16:43:36.314Z,6.00
2018-02-19T16:46:16.773Z,6.00
2018-02-19T16:48:49.254Z,6.00
2018-02-19T16:51:19.886Z,6.00
2018-02-19T16:53:49.844Z,6.20
2018-02-19T16:56:19.725Z,6.40
2018-02-19T16:58:50.668Z,6.40
2018-02-19T17:01:30.614Z,6.40
2018-02-19T17:04:02.184Z,6.40
2018-02-19T17:06:37.331Z,6.50
2018-02-19T17:09:12.388Z,6.60
2018-02-19T17:11:42.312Z,6.70
2018-02-19T17:14:12.395Z,6.50
2018-02-19T17:16:43.239Z,6.50
2018-02-19T17:19:13.150Z,6.50
2018-02-19T17:21:44.739Z,6.50
2018-02-19T17:24:15.735Z,6.40
2018-02-19T17:26:45.546Z,6.40
2018-02-19T17:29:15.569Z,6.40
2018-02-19T17:31:45.691Z,6.50
2018-02-19T17:34:16.376Z,6.40
2018-02-19T17:36:55.541Z,6.30
2018-02-19T17:39:31.743Z,6.30
2018-02-19T17:42:01.822Z,6.30
2018-02-19T17:44:32.205Z,6.30
2018-02-19T17:47:05.047Z,6.20
2018-02-19T17:49:34.890Z,6.20
2018-02-19T17:52:36.468Z,6.10
2018-02-19T17:55:07.534Z,6.20
2018-02-19T17:57:37.364Z,6.20
2018-02-19T18:00:10.561Z,6.20
2018-02-19T18:02:41.059Z,6.20
2018-02-19T18:05:11.811Z,6.20
2018-02-19T18:07:48.344Z,6.20
2018-02-19T18:10:18.896Z,6.20
2018-02-19T18:12:48.992Z,6.10
2018-02-19T18:15:19.116Z,6.10
2018-02-19T18:17:50.336Z,6.00
2018-02-19T18:20:22.741Z,6.00
2018-02-19T18:22:52.816Z,6.00
2018-02-19T18:25:23.598Z,6.00
2018-02-19T18:27:54.052Z,6.00
2018-02-19T18:33:46.598Z,5.80
2018-02-19T18:36:17.713Z,5.90
2018-02-19T18:38:50.902Z,5.90
2018-02-19T18:41:21.453Z,5.90
2018-02-19T18:43:57.428Z,5.90
2018-02-19T18:46:29.449Z,5.80
2018-02-19T18:48:59.988Z,5.80
2018-02-19T18:51:38.987Z,5.80
2018-02-19T18:54:10.197Z,5.80
2018-02-19T18:56:44.008Z,5.90
2018-02-19T18:59:16.090Z,5.90
2018-02-19T19:02:04.246Z,5.90
2018-02-19T19:04:48.614Z,5.80
2018-02-19T19:07:34.306Z,5.80
2018-02-19T19:10:47.196Z,5.80
2018-02-19T19:13:19.284Z,5.80
2018-02-19T19:16:13.432Z,5.80
2018-02-19T19:18:44.268Z,5.80
2018-02-19T19:21:16.857Z,5.80
2018-02-19T19:23:46.824Z,5.60
2018-02-19T19:26:17.596Z,5.60
2018-02-19T19:28:47.860Z,5.60
2018-02-19T19:31:18.363Z,5.60
2018-02-19T19:33:48.001Z,5.60
2018-02-19T19:36:19.997Z,5.70
2018-02-19T19:38:59.584Z,5.60
2018-02-19T19:41:41.013Z,5.70
2018-02-19T19:44:12.062Z,5.70
2018-02-19T19:46:42.045Z,5.60
2018-02-19T19:49:14.322Z,5.50
2018-02-19T19:52:11.418Z,5.50
2018-02-19T19:54:52.606Z,5.50
2018-02-19T19:57:24.638Z,5.50
2018-02-19T19:59:58.088Z,5.50
2018-02-19T20:02:29.374Z,5.40
2018-02-19T20:05:00.227Z,5.50
2018-02-19T20:07:31.267Z,5.40
2018-02-19T20:10:01.982Z,5.40
2018-02-19T20:12:32.261Z,5.40
2018-02-19T20:15:03.641Z,5.40
2018-02-19T20:17:43.724Z,5.30
2018-02-19T20:20:13.976Z,5.30
2018-02-19T20:22:57.917Z,5.30
2018-02-19T20:25:30.370Z,5.30
2018-02-19T20:28:00.340Z,5.30
2018-02-19T20:30:35.454Z,5.40
2018-02-19T20:33:05.283Z,5.40
2018-02-19T20:35:34.923Z,5.40
2018-02-19T20:38:05.679Z,5.40
2018-02-19T20:40:37.816Z,5.40
2018-02-19T20:43:08.034Z,5.50
2018-02-19T20:45:41.591Z,5.50
2018-02-19T20:48:11.685Z,5.40
2018-02-19T20:50:46.818Z,5.40
2018-02-19T20:53:17.713Z,5.30
2018-02-19T20:55:49.224Z,5.30
2018-02-19T20:58:19.191Z,5.30
2018-02-19T21:00:50.219Z,5.40
2018-02-19T21:03:20.777Z,5.40
2018-02-19T21:05:50.434Z,5.40
2018-02-19T21:08:28.785Z,5.40
2018-02-19T21:11:08.495Z,5.30
2018-02-19T21:13:41.797Z,5.30
2018-02-19T21:16:12.554Z,5.30
2018-02-19T21:18:43.956Z,5.20
2018-02-19T21:21:20.884Z,5.20
2018-02-19T21:23:53.602Z,5.20
2018-02-19T21:26:23.206Z,5.10
2018-02-19T21:28:52.694Z,5.20
2018-02-19T21:31:24.646Z,5.10
2018-02-19T21:33:54.147Z,5.10
2018-02-19T21:36:23.769Z,5.10
2018-02-19T21:38:55.254Z,5.10
2018-02-19T21:41:24.952Z,5.10
2018-02-19T21:44:02.573Z,5.00
2018-02-19T21:46:40.261Z,5.00
2018-02-19T21:49:21.580Z,5.00
2018-02-19T21:52:01.647Z,4.80
2018-02-19T21:54:33.151Z,4.70
2018-02-19T21:57:03.047Z,4.70
2018-02-19T21:59:34.700Z,4.60
2018-02-19T22:02:05.228Z,4.60
2018-02-19T22:04:36.688Z,4.60
2018-02-19T22:07:14.489Z,4.50
2018-02-19T22:10:02.713Z,4.50
2018-02-19T22:12:43.332Z,4.50
2018-02-19T22:15:20.964Z,4.50
2018-02-19T22:17:52.477Z,4.50
2018-02-19T22:20:23.877Z,4.40
2018-02-19T22:22:54.806Z,4.40
2018-02-19T22:25:24.791Z,4.40
2018-02-19T22:27:56.084Z,4.40
2018-02-19T22:30:28.155Z,4.40
2018-02-19T22:33:04.432Z,4.20
2018-02-19T22:35:35.157Z,4.20
2018-02-19T22:38:05.319Z,4.10
2018-02-19T22:40:35.133Z,4.10
2018-02-19T22:43:05.144Z,4.00
2018-02-19T22:45:35.091Z,4.00
2018-02-19T22:48:04.781Z,3.90
2018-02-19T22:50:34.316Z,3.90
2018-02-19T22:53:05.932Z,3.80
2018-02-19T22:55:35.867Z,3.80
2018-02-19T22:58:05.648Z,3.80
2018-02-19T23:00:35.167Z,3.70
2018-02-19T23:03:07.449Z,3.60
2018-02-19T23:05:41.280Z,3.70
2018-02-19T23:08:12.105Z,3.60
2018-02-19T23:10:42.960Z,3.60
2018-02-19T23:13:15.531Z,3.40
2018-02-19T23:15:46.637Z,3.40
2018-02-19T23:18:17.126Z,3.40
2018-02-19T23:20:46.969Z,3.40
2018-02-19T23:23:17.390Z,3.20
2018-02-19T23:25:46.951Z,3.20
2018-02-19T23:28:16.583Z,3.20
2018-02-19T23:30:46.229Z,3.10
2018-02-19T23:33:17.416Z,3.00
2018-02-19T23:35:51.451Z,2.90
2018-02-19T23:38:21.732Z,2.90
2018-02-19T23:40:51.413Z,2.80
2018-02-19T23:43:21.182Z,2.70
2018-02-19T23:45:50.750Z,2.60
2018-02-19T23:48:21.061Z,2.50
2018-02-19T23:50:50.672Z,2.50
2018-02-19T23:53:24.208Z,2.50
2018-02-19T23:55:55.181Z,2.40
2018-02-19T23:58:25.033Z,2.40
